createdAt,value
2022-10-06T00:00:03.497Z,84.07
2022-10-06T00:01:03.137Z,84.47
2022-10-06T00:02:03.301Z,84.57
2022-10-06T00:03:03.208Z,84.37
2022-10-06T00:04:03.176Z,84.67
2022-10-06T00:05:03.723Z,84.77
2022-10-06T00:06:03.217Z,85.08
2022-10-06T00:07:03.107Z,85.17
2022-10-06T00:08:03.215Z,84.67
2022-10-06T00:09:03.583Z,84.67
2022-10-06T00:10:03.178Z,84.77
2022-10-06T00:11:03.720Z,84.77
2022-10-06T00:12:02.493Z,84.77
2022-10-06T00:13:02.948Z,84.77
2022-10-06T00:14:02.378Z,84.97
2022-10-06T00:15:02.916Z,85.28
2022-10-06T00:16:02.577Z,85.08
2022-10-06T00:17:03.125Z,85.42
2022-10-06T00:18:03.531Z,86.22
2022-10-06T00:19:03.046Z,86.43
2022-10-06T00:20:03.567Z,86.53
2022-10-06T00:21:03.311Z,86.53
2022-10-06T00:22:03.579Z,86.83
2022-10-06T00:23:03.541Z,86.73
2022-10-06T00:24:03.275Z,86.63
2022-10-06T00:25:03.714Z,86.83
2022-10-06T00:26:03.128Z,86.57
2022-10-06T00:27:03.248Z,87.27
2022-10-06T00:28:02.859Z,87.07
2022-10-06T00:29:02.651Z,87.78
2022-10-06T00:30:02.708Z,88.18
2022-10-06T00:31:03.341Z,88.99
2022-10-06T00:32:02.888Z,89.90
2022-10-06T00:33:03.052Z,90.45
2022-10-06T00:34:03.047Z,91.05
2022-10-06T00:35:02.985Z,91.50
2022-10-06T00:36:03.530Z,91.80
2022-10-06T00:37:03.295Z,92.10
2022-10-06T00:38:03.188Z,91.96
2022-10-06T00:39:03.635Z,91.30
2022-10-06T00:40:03.541Z,91.60
2022-10-06T00:41:03.244Z,91.70
2022-10-06T00:42:02.723Z,91.35
2022-10-06T00:43:03.165Z,91.15
2022-10-06T00:44:02.884Z,91.09
2022-10-06T00:45:03.155Z,90.39
2022-10-06T00:46:02.744Z,90.89
2022-10-06T00:47:03.280Z,90.79
2022-10-06T00:48:03.726Z,91.09
2022-10-06T00:49:03.741Z,91.03
2022-10-06T00:50:03.602Z,90.94
2022-10-06T00:51:03.372Z,91.03
2022-10-06T00:52:03.084Z,90.53
2022-10-06T00:53:03.169Z,90.73
2022-10-06T00:54:03.292Z,90.94
2022-10-06T00:55:03.156Z,91.14
2022-10-06T00:56:03.020Z,90.63
2022-10-06T00:57:03.913Z,90.33
2022-10-06T00:58:03.542Z,90.53
2022-10-06T00:59:03.349Z,90.33
2022-10-06T01:00:03.739Z,90.08
2022-10-06T01:01:03.764Z,89.98
2022-10-06T01:02:02.666Z,89.52
2022-10-06T01:03:02.974Z,89.48
2022-10-06T01:04:02.878Z,89.52
2022-10-06T01:05:02.588Z,89.28
2022-10-06T01:06:02.564Z,89.17
2022-10-06T01:07:02.166Z,89.28
2022-10-06T01:08:02.097Z,89.17
2022-10-06T01:09:02.034Z,89.17
2022-10-06T01:10:01.904Z,88.77
2022-10-06T01:11:02.473Z,88.87
2022-10-06T01:12:02.542Z,88.77
2022-10-06T01:13:02.473Z,89.17
2022-10-06T01:14:03.004Z,88.57
2022-10-06T01:15:02.790Z,88.57
2022-10-06T01:16:02.551Z,88.57
2022-10-06T01:17:02.180Z,88.47
2022-10-06T01:18:01.984Z,88.57
2022-10-06T01:19:01.832Z,88.26
2022-10-06T01:20:02.031Z,88.67
2022-10-06T01:21:01.841Z,88.57
2022-10-06T01:22:02.472Z,88.37
2022-10-06T01:23:02.255Z,88.47
2022-10-06T01:24:02.067Z,88.67
2022-10-06T01:25:02.566Z,88.37
2022-10-06T01:26:02.394Z,88.37
2022-10-06T01:27:02.171Z,88.26
2022-10-06T01:28:02.679Z,88.37
2022-10-06T01:29:02.304Z,88.57
2022-10-06T01:30:02.594Z,88.37
2022-10-06T01:31:02.530Z,88.57
2022-10-06T01:32:02.026Z,88.57
2022-10-06T01:33:01.947Z,89.07
2022-10-06T01:34:02.372Z,89.22
2022-10-06T01:35:02.276Z,89.12
2022-10-06T01:36:02.080Z,89.42
2022-10-06T01:37:02.282Z,89.62
2022-10-06T01:38:02.054Z,89.52
2022-10-06T01:39:01.928Z,89.52
2022-10-06T01:40:02.069Z,89.52
2022-10-06T01:41:01.960Z,89.22
2022-10-06T01:42:02.505Z,89.92
2022-10-06T01:43:02.596Z,89.83
2022-10-06T01:44:02.314Z,90.23
2022-10-06T01:45:02.078Z,90.27
2022-10-06T01:46:02.512Z,89.92
2022-10-06T01:47:02.090Z,89.72
2022-10-06T01:48:01.892Z,89.92
2022-10-06T01:49:02.224Z,89.83
2022-10-06T01:50:01.960Z,89.72
2022-10-06T01:51:01.806Z,89.97
2022-10-06T01:52:02.267Z,89.97
2022-10-06T01:53:02.012Z,89.87
2022-10-06T01:54:01.862Z,89.97
2022-10-06T01:55:02.435Z,90.17
2022-10-06T01:56:01.980Z,90.07
2022-10-06T01:57:02.548Z,90.37
2022-10-06T01:58:02.286Z,90.07
2022-10-06T01:59:02.181Z,89.66
2022-10-06T02:00:02.649Z,89.66
2022-10-06T02:01:02.299Z,89.76
2022-10-06T02:02:03.682Z,89.66
2022-10-06T02:03:03.787Z,89.46
2022-10-06T02:04:03.410Z,89.26
2022-10-06T02:05:03.959Z,89.56
2022-10-06T02:06:03.867Z,89.36
2022-10-06T02:07:03.506Z,89.46
2022-10-06T02:08:03.595Z,89.06
2022-10-06T02:09:03.254Z,88.96
2022-10-06T02:10:03.575Z,88.75
2022-10-06T02:11:03.363Z,89.20
2022-10-06T02:12:03.819Z,89.30
2022-10-06T02:13:03.858Z,89.10
2022-10-06T02:14:03.460Z,88.90
2022-10-06T02:15:03.357Z,89.00
2022-10-06T02:16:03.972Z,89.10
2022-10-06T02:17:03.443Z,88.79
2022-10-06T02:18:02.944Z,88.70
2022-10-06T02:19:03.416Z,88.49
2022-10-06T02:20:03.197Z,88.49
2022-10-06T02:21:03.483Z,88.84
2022-10-06T02:22:03.465Z,89.14
2022-10-06T02:23:03.343Z,89.04
2022-10-06T02:24:03.282Z,89.14
2022-10-06T02:25:03.501Z,88.43
2022-10-06T02:26:03.462Z,88.98
2022-10-06T02:27:03.155Z,89.18
2022-10-06T02:28:02.853Z,89.39
2022-10-06T02:29:02.927Z,89.39
2022-10-06T02:30:02.697Z,89.28
2022-10-06T02:31:02.881Z,89.48
2022-10-06T02:32:03.659Z,89.48
2022-10-06T02:33:03.497Z,89.69
2022-10-06T02:34:03.327Z,89.79
2022-10-06T02:35:03.123Z,89.69
2022-10-06T02:36:02.988Z,89.94
2022-10-06T02:37:03.363Z,89.94
2022-10-06T02:38:03.934Z,89.94
2022-10-06T02:39:03.923Z,90.24
2022-10-06T02:40:03.489Z,90.54
2022-10-06T02:41:03.359Z,90.44
2022-10-06T02:42:03.910Z,90.14
2022-10-06T02:43:03.911Z,90.64
2022-10-06T02:44:04.099Z,90.79
2022-10-06T02:45:03.911Z,90.79
2022-10-06T02:46:03.601Z,90.69
2022-10-06T02:47:03.449Z,90.64
2022-10-06T02:48:03.013Z,90.44
2022-10-06T02:49:02.818Z,90.34
2022-10-06T02:50:03.179Z,89.98
2022-10-06T02:51:03.008Z,90.38
2022-10-06T02:52:03.502Z,90.48
2022-10-06T02:53:03.273Z,90.89
2022-10-06T02:54:03.077Z,90.99
2022-10-06T02:55:03.300Z,90.89
2022-10-06T02:56:03.386Z,91.24
2022-10-06T02:57:03.658Z,91.09
2022-10-06T02:58:03.508Z,90.79
2022-10-06T02:59:03.353Z,90.83
2022-10-06T03:00:03.472Z,90.93
2022-10-06T03:01:03.648Z,91.03
2022-10-06T03:02:02.490Z,91.13
2022-10-06T03:03:02.865Z,91.03
2022-10-06T03:04:02.537Z,90.93
2022-10-06T03:05:02.447Z,91.03
2022-10-06T03:06:02.620Z,91.48
2022-10-06T03:07:03.016Z,91.24
2022-10-06T03:08:02.869Z,90.83
2022-10-06T03:09:03.098Z,91.13
2022-10-06T03:10:02.798Z,91.03
2022-10-06T03:11:02.713Z,90.88
2022-10-06T03:12:03.816Z,90.63
2022-10-06T03:13:03.726Z,90.22
2022-10-06T03:14:03.698Z,90.02
2022-10-06T03:15:03.937Z,90.02
2022-10-06T03:16:03.458Z,90.12
2022-10-06T03:17:02.491Z,89.81
2022-10-06T03:18:02.807Z,90.06
2022-10-06T03:19:02.657Z,90.36
2022-10-06T03:20:02.635Z,90.36
2022-10-06T03:21:03.040Z,90.16
2022-10-06T03:22:02.913Z,90.06
2022-10-06T03:23:03.472Z,90.06
2022-10-06T03:24:02.955Z,90.16
2022-10-06T03:25:03.081Z,90.16
2022-10-06T03:26:03.240Z,90.16
2022-10-06T03:27:03.021Z,90.16
2022-10-06T03:28:03.464Z,90.06
2022-10-06T03:29:04.442Z,90.00
2022-10-06T03:30:03.621Z,90.11
2022-10-06T03:31:03.151Z,90.20
2022-10-06T03:32:03.216Z,90.31
2022-10-06T03:33:03.769Z,90.20
2022-10-06T03:34:03.397Z,90.20
2022-10-06T03:35:03.251Z,90.11
2022-10-06T03:36:03.415Z,89.90
2022-10-06T03:37:02.663Z,89.39
2022-10-06T03:38:02.507Z,89.39
2022-10-06T03:39:02.875Z,89.39
2022-10-06T03:40:02.613Z,89.50
2022-10-06T03:41:02.541Z,89.19
2022-10-06T03:42:03.031Z,89.50
2022-10-06T03:43:03.175Z,89.50
2022-10-06T03:44:03.110Z,89.09
2022-10-06T03:45:03.097Z,89.50
2022-10-06T03:46:03.024Z,89.39
2022-10-06T03:47:03.752Z,89.33
2022-10-06T03:48:03.199Z,89.43
2022-10-06T03:49:03.360Z,89.43
2022-10-06T03:50:03.372Z,89.64
2022-10-06T03:51:03.339Z,89.33
2022-10-06T03:52:02.560Z,89.23
2022-10-06T03:53:02.851Z,89.13
2022-10-06T03:54:02.481Z,89.43
2022-10-06T03:55:02.326Z,89.43
2022-10-06T03:56:02.871Z,89.78
2022-10-06T03:57:02.720Z,89.58
2022-10-06T03:58:03.085Z,89.33
2022-10-06T03:59:02.954Z,89.13
2022-10-06T04:00:02.746Z,89.37
2022-10-06T04:01:03.042Z,89.37
2022-10-06T04:02:02.161Z,89.68
2022-10-06T04:03:02.131Z,89.48
2022-10-06T04:04:01.802Z,89.68
2022-10-06T04:05:01.653Z,89.48
2022-10-06T04:06:02.177Z,89.48
2022-10-06T04:07:02.361Z,89.37
2022-10-06T04:08:02.708Z,89.28
2022-10-06T04:09:02.713Z,89.07
2022-10-06T04:10:02.345Z,88.97
2022-10-06T04:11:02.794Z,88.87
2022-10-06T04:12:02.619Z,88.87
2022-10-06T04:13:02.647Z,88.87
2022-10-06T04:14:03.041Z,88.97
2022-10-06T04:15:02.395Z,88.87
2022-10-06T04:16:03.071Z,88.97
2022-10-06T04:17:02.014Z,89.17
2022-10-06T04:18:01.731Z,89.28
2022-10-06T04:19:02.213Z,89.28
2022-10-06T04:20:02.050Z,89.28
2022-10-06T04:21:01.953Z,89.07
2022-10-06T04:22:02.981Z,88.76
2022-10-06T04:23:02.925Z,88.76
2022-10-06T04:24:02.699Z,88.36
2022-10-06T04:25:02.678Z,88.36
2022-10-06T04:26:02.479Z,88.36
2022-10-06T04:27:01.980Z,88.46
2022-10-06T04:28:02.277Z,88.56
2022-10-06T04:29:02.271Z,88.46
2022-10-06T04:30:01.834Z,88.56
2022-10-06T04:31:02.322Z,88.56
2022-10-06T04:32:02.642Z,88.46
2022-10-06T04:33:02.548Z,88.26
2022-10-06T04:34:02.231Z,88.16
2022-10-06T04:35:02.807Z,88.36
2022-10-06T04:36:02.579Z,88.46
2022-10-06T04:37:01.949Z,88.36
2022-10-06T04:38:01.653Z,88.81
2022-10-06T04:39:01.571Z,89.11
2022-10-06T04:40:02.048Z,89.11
2022-10-06T04:41:01.972Z,89.42
2022-10-06T04:42:02.318Z,89.52
2022-10-06T04:43:02.043Z,89.56
2022-10-06T04:44:02.472Z,89.87
2022-10-06T04:45:02.484Z,89.56
2022-10-06T04:46:18.170Z,89.56
2022-10-06T04:47:02.856Z,89.56
2022-10-06T04:48:02.627Z,89.56
2022-10-06T04:49:02.758Z,89.66
2022-10-06T04:50:02.820Z,89.76
2022-10-06T04:51:02.571Z,90.07
2022-10-06T04:52:02.158Z,89.87
2022-10-06T04:53:02.063Z,89.76
2022-10-06T04:54:02.073Z,90.07
2022-10-06T04:55:01.968Z,89.87
2022-10-06T04:56:01.733Z,90.22
2022-10-06T04:57:02.576Z,90.31
2022-10-06T04:58:02.562Z,89.81
2022-10-06T04:59:02.649Z,89.81
2022-10-06T05:00:07.065Z,90.01
2022-10-06T05:01:02.413Z,90.22
2022-10-06T05:02:03.251Z,89.61
2022-10-06T05:03:03.176Z,89.61
2022-10-06T05:04:02.775Z,89.81
2022-10-06T05:05:02.648Z,89.81
2022-10-06T05:06:02.562Z,90.22
2022-10-06T05:07:03.347Z,90.01
2022-10-06T05:08:03.400Z,89.70
2022-10-06T05:09:03.093Z,89.40
2022-10-06T05:10:02.957Z,89.81
2022-10-06T05:11:03.143Z,89.70
2022-10-06T05:12:03.366Z,89.50
2022-10-06T05:13:03.322Z,89.00
2022-10-06T05:14:03.409Z,89.40
2022-10-06T05:15:03.555Z,89.81
2022-10-06T05:16:03.114Z,89.30
2022-10-06T05:17:02.740Z,89.20
2022-10-06T05:18:02.597Z,89.09
2022-10-06T05:19:02.441Z,89.20
2022-10-06T05:20:02.328Z,88.79
2022-10-06T05:21:06.498Z,88.89
2022-10-06T05:22:03.436Z,88.79
2022-10-06T05:23:03.086Z,88.79
2022-10-06T05:24:02.909Z,88.48
2022-10-06T05:25:03.486Z,88.13
2022-10-06T05:26:02.888Z,88.13
2022-10-06T05:27:02.516Z,88.24
2022-10-06T05:28:02.620Z,87.93
2022-10-06T05:29:02.276Z,87.73
2022-10-06T05:30:02.383Z,87.73
2022-10-06T05:31:02.502Z,87.73
2022-10-06T05:32:03.057Z,87.73
2022-10-06T05:33:02.986Z,87.53
2022-10-06T05:34:03.136Z,87.53
2022-10-06T05:35:02.950Z,87.63
2022-10-06T05:36:03.119Z,87.23
2022-10-06T05:37:03.076Z,87.16
2022-10-06T05:38:03.124Z,87.16
2022-10-06T05:39:03.161Z,87.26
2022-10-06T05:40:02.834Z,87.06
2022-10-06T05:41:02.824Z,87.26
2022-10-06T05:42:03.541Z,87.37
2022-10-06T05:43:03.364Z,87.06
2022-10-06T05:44:02.949Z,87.06
2022-10-06T05:45:03.096Z,87.26
2022-10-06T05:46:03.069Z,87.47
2022-10-06T05:47:02.119Z,87.81
2022-10-06T05:48:02.143Z,87.61
2022-10-06T05:49:02.248Z,87.41
2022-10-06T05:50:02.277Z,87.30
2022-10-06T05:51:02.383Z,87.51
2022-10-06T05:52:02.293Z,87.51
2022-10-06T05:53:02.277Z,87.61
2022-10-06T05:54:02.363Z,87.61
2022-10-06T05:55:02.929Z,87.41
2022-10-06T05:56:02.661Z,87.41
2022-10-06T05:57:03.249Z,87.61
2022-10-06T05:58:02.597Z,87.96
2022-10-06T05:59:03.087Z,87.85
2022-10-06T06:00:02.797Z,87.65
2022-10-06T06:01:02.961Z,87.65
2022-10-06T06:02:02.113Z,87.85
2022-10-06T06:03:02.626Z,87.75
2022-10-06T06:04:02.020Z,87.35
2022-10-06T06:05:02.041Z,87.65
2022-10-06T06:06:02.277Z,87.35
2022-10-06T06:07:03.050Z,87.24
2022-10-06T06:08:02.610Z,87.75
2022-10-06T06:09:03.091Z,87.04
2022-10-06T06:10:02.915Z,87.24
2022-10-06T06:11:03.033Z,87.24
2022-10-06T06:12:02.300Z,87.04
2022-10-06T06:13:02.428Z,87.35
2022-10-06T06:14:02.420Z,87.04
2022-10-06T06:15:02.118Z,87.04
2022-10-06T06:16:02.241Z,86.83
2022-10-06T06:17:03.052Z,86.83
2022-10-06T06:18:02.781Z,86.94
2022-10-06T06:19:02.747Z,87.14
2022-10-06T06:20:02.793Z,86.94
2022-10-06T06:21:02.787Z,87.14
2022-10-06T06:22:02.255Z,87.45
2022-10-06T06:23:02.182Z,87.38
2022-10-06T06:24:02.464Z,87.38
2022-10-06T06:25:02.177Z,88.10
2022-10-06T06:26:02.803Z,88.10
2022-10-06T06:27:02.636Z,88.10
2022-10-06T06:28:02.925Z,87.79
2022-10-06T06:29:02.714Z,87.90
2022-10-06T06:30:02.957Z,88.00
2022-10-06T06:31:03.179Z,88.51
2022-10-06T06:32:01.751Z,88.20
2022-10-06T06:33:01.758Z,89.32
2022-10-06T06:34:02.307Z,88.81
2022-10-06T06:35:02.439Z,88.92
2022-10-06T06:36:02.262Z,89.01
2022-10-06T06:37:07.536Z,88.92
2022-10-06T06:38:02.604Z,88.71
2022-10-06T06:39:02.350Z,88.71
2022-10-06T06:40:02.372Z,88.92
2022-10-06T06:41:02.777Z,88.51
2022-10-06T06:42:01.997Z,88.51
2022-10-06T06:43:01.823Z,89.01
2022-10-06T06:44:01.871Z,88.92
2022-10-06T06:45:02.245Z,89.12
2022-10-06T06:46:02.036Z,89.32
2022-10-06T06:47:02.172Z,88.81
2022-10-06T06:48:02.066Z,88.61
2022-10-06T06:49:02.070Z,88.61
2022-10-06T06:50:02.251Z,88.51
2022-10-06T06:51:01.897Z,88.77
2022-10-06T06:52:02.067Z,88.36
2022-10-06T06:53:02.419Z,88.36
2022-10-06T06:54:02.623Z,88.26
2022-10-06T06:55:02.352Z,88.36
2022-10-06T06:56:02.620Z,88.06
2022-10-06T06:57:02.407Z,87.96
2022-10-06T06:58:02.295Z,88.57
2022-10-06T06:59:02.387Z,88.57
2022-10-06T07:00:02.399Z,88.67
2022-10-06T07:01:02.739Z,88.32
2022-10-06T07:02:02.608Z,88.12
2022-10-06T07:03:02.380Z,87.92
2022-10-06T07:04:02.308Z,87.81
2022-10-06T07:05:02.633Z,87.81
2022-10-06T07:06:02.803Z,87.71
2022-10-06T07:07:02.893Z,87.71
2022-10-06T07:08:02.685Z,88.32
2022-10-06T07:09:02.650Z,87.92
2022-10-06T07:10:03.023Z,87.51
2022-10-06T07:11:03.000Z,87.41
2022-10-06T07:12:02.835Z,87.41
2022-10-06T07:13:03.258Z,87.41
2022-10-06T07:14:03.005Z,87.92
2022-10-06T07:15:02.962Z,87.61
2022-10-06T07:16:03.106Z,87.41
2022-10-06T07:17:03.107Z,87.51
2022-10-06T07:18:03.316Z,87.30
2022-10-06T07:19:03.426Z,87.61
2022-10-06T07:20:03.400Z,87.20
2022-10-06T07:21:03.440Z,87.41
2022-10-06T07:22:02.812Z,87.81
2022-10-06T07:23:02.611Z,87.51
2022-10-06T07:24:02.495Z,87.41
2022-10-06T07:25:02.742Z,87.30
2022-10-06T07:26:02.903Z,87.51
2022-10-06T07:27:02.777Z,87.71
2022-10-06T07:28:02.951Z,87.92
2022-10-06T07:29:02.851Z,87.61
2022-10-06T07:30:02.756Z,87.61
2022-10-06T07:31:03.022Z,87.41
2022-10-06T07:32:02.896Z,87.30
2022-10-06T07:33:02.946Z,87.81
2022-10-06T07:34:03.135Z,87.30
2022-10-06T07:35:02.800Z,87.30
2022-10-06T07:36:03.475Z,87.81
2022-10-06T07:37:05.758Z,87.61
2022-10-06T07:38:02.437Z,87.51
2022-10-06T07:39:02.773Z,87.61
2022-10-06T07:40:02.739Z,87.92
2022-10-06T07:41:19.661Z,87.71
2022-10-06T07:42:03.333Z,87.61
2022-10-06T07:43:03.257Z,87.71
2022-10-06T07:44:07.720Z,87.92
2022-10-06T07:45:03.151Z,87.77
2022-10-06T07:46:03.141Z,87.57
2022-10-06T07:47:03.660Z,87.67
2022-10-06T07:48:03.269Z,87.77
2022-10-06T07:49:03.388Z,87.67
2022-10-06T07:50:03.337Z,87.47
2022-10-06T07:51:03.274Z,87.26
2022-10-06T07:52:03.071Z,87.26
2022-10-06T07:53:03.121Z,87.67
2022-10-06T07:54:02.616Z,87.87
2022-10-06T07:55:02.791Z,87.77
2022-10-06T07:56:03.189Z,87.77
2022-10-06T07:57:03.338Z,87.98
2022-10-06T07:58:03.351Z,87.93
2022-10-06T07:59:03.793Z,87.93
2022-10-06T08:00:03.800Z,88.24
2022-10-06T08:01:03.794Z,88.54
2022-10-06T08:02:01.983Z,88.34
2022-10-06T08:03:02.244Z,88.13
2022-10-06T08:04:01.945Z,88.65
2022-10-06T08:05:01.986Z,89.15
2022-10-06T08:06:02.283Z,89.31
2022-10-06T08:07:02.543Z,89.11
2022-10-06T08:08:02.091Z,89.52
2022-10-06T08:09:02.451Z,89.01
2022-10-06T08:10:02.238Z,88.97
2022-10-06T08:11:02.660Z,88.36
2022-10-06T08:12:02.709Z,88.56
2022-10-06T08:13:02.720Z,87.95
2022-10-06T08:14:02.552Z,88.36
2022-10-06T08:15:06.044Z,88.62
2022-10-06T08:16:02.666Z,87.61
2022-10-06T08:17:02.411Z,88.21
2022-10-06T08:18:06.234Z,88.32
2022-10-06T08:19:02.448Z,88.01
2022-10-06T08:20:02.709Z,87.16
2022-10-06T08:21:02.786Z,87.26
2022-10-06T08:22:04.865Z,87.06
2022-10-06T08:23:02.059Z,87.46
2022-10-06T08:24:02.144Z,88.34
2022-10-06T08:25:06.134Z,88.03
2022-10-06T08:26:02.102Z,87.22
2022-10-06T08:27:02.306Z,86.61
2022-10-06T08:28:02.598Z,86.61
2022-10-06T08:29:02.191Z,86.37
2022-10-06T08:30:02.757Z,86.77
2022-10-06T08:31:02.785Z,85.96
2022-10-06T08:32:02.770Z,85.46
2022-10-06T08:33:02.053Z,85.62
2022-10-06T08:34:02.266Z,85.93
2022-10-06T08:35:01.877Z,85.82
2022-10-06T08:36:01.948Z,85.52
2022-10-06T08:37:19.430Z,84.70
2022-10-06T08:38:02.110Z,84.47
2022-10-06T08:39:02.172Z,84.97
2022-10-06T08:40:02.577Z,85.27
2022-10-06T08:41:02.458Z,84.97
2022-10-06T08:42:02.443Z,85.17
2022-10-06T08:43:02.418Z,84.83
2022-10-06T08:44:02.567Z,84.73
2022-10-06T08:45:02.562Z,84.42
2022-10-06T08:46:02.649Z,84.22
2022-10-06T08:47:02.650Z,83.51
2022-10-06T08:48:02.946Z,83.47
2022-10-06T08:49:02.552Z,81.96
2022-10-06T08:50:02.582Z,83.17
2022-10-06T08:51:02.932Z,83.07
2022-10-06T08:52:02.379Z,82.97
2022-10-06T08:53:02.073Z,81.76
2022-10-06T08:54:02.279Z,82.93
2022-10-06T08:55:02.192Z,82.42
2022-10-06T08:56:02.373Z,83.23
2022-10-06T08:57:02.870Z,81.41
2022-10-06T08:58:02.672Z,81.57
2022-10-06T08:59:02.397Z,82.49
2022-10-06T09:00:03.017Z,82.79
2022-10-06T09:01:02.945Z,81.48
2022-10-06T09:02:02.549Z,81.37
2022-10-06T09:03:02.483Z,82.65
2022-10-06T09:04:02.757Z,82.55
2022-10-06T09:05:03.083Z,82.65
2022-10-06T09:06:02.566Z,81.03
2022-10-06T09:07:05.374Z,78.41
2022-10-06T09:08:02.693Z,79.11
2022-10-06T09:09:02.776Z,79.08
2022-10-06T09:10:03.181Z,79.88
2022-10-06T09:11:03.217Z,78.88
2022-10-06T09:12:02.633Z,79.17
2022-10-06T09:13:02.402Z,79.68
2022-10-06T09:14:02.292Z,79.17
2022-10-06T09:15:02.376Z,77.93
2022-10-06T09:16:02.414Z,77.42
2022-10-06T09:17:02.742Z,78.23
2022-10-06T09:18:03.041Z,77.42
2022-10-06T09:19:08.698Z,77.93
2022-10-06T09:20:03.030Z,77.93
2022-10-06T09:21:03.336Z,77.83
2022-10-06T09:22:02.131Z,78.30
2022-10-06T09:23:02.255Z,78.59
2022-10-06T09:24:02.344Z,78.70
2022-10-06T09:25:02.285Z,79.47
2022-10-06T09:26:02.318Z,77.08
2022-10-06T09:27:02.510Z,77.95
2022-10-06T09:28:02.559Z,78.96
2022-10-06T09:29:02.497Z,78.66
2022-10-06T09:30:02.718Z,77.21
2022-10-06T09:31:02.575Z,77.42
2022-10-06T09:32:02.990Z,76.91
2022-10-06T09:33:02.825Z,75.10
2022-10-06T09:34:03.139Z,74.08
2022-10-06T09:35:03.170Z,73.68
2022-10-06T09:36:03.363Z,75.70
2022-10-06T09:37:03.217Z,76.71
2022-10-06T09:38:07.283Z,74.99
2022-10-06T09:39:03.029Z,73.48
2022-10-06T09:40:03.414Z,72.78
2022-10-06T09:41:02.826Z,71.57
2022-10-06T09:42:02.373Z,71.57
2022-10-06T09:43:02.398Z,72.88
2022-10-06T09:44:02.730Z,73.88
2022-10-06T09:45:02.481Z,73.99
2022-10-06T09:46:02.446Z,73.88
2022-10-06T09:47:02.461Z,74.26
2022-10-06T09:48:02.251Z,73.55
2022-10-06T09:49:02.281Z,72.85
2022-10-06T09:50:02.572Z,73.65
2022-10-06T09:51:02.825Z,74.12
2022-10-06T09:52:02.667Z,73.21
2022-10-06T09:53:02.457Z,73.01
2022-10-06T09:54:02.646Z,70.79
2022-10-06T09:55:02.533Z,73.61
2022-10-06T09:56:02.615Z,74.82
2022-10-06T09:57:03.077Z,74.29
2022-10-06T09:58:02.994Z,74.89
2022-10-06T09:59:02.709Z,73.58
2022-10-06T10:00:03.144Z,73.48
2022-10-06T10:01:03.291Z,73.04
2022-10-06T10:02:02.289Z,70.63
2022-10-06T10:03:02.733Z,70.32
2022-10-06T10:04:19.321Z,71.23
2022-10-06T10:05:02.300Z,70.73
2022-10-06T10:06:02.706Z,71.77
2022-10-06T10:07:02.383Z,72.94
2022-10-06T10:08:02.394Z,70.63
2022-10-06T10:09:02.517Z,71.53
2022-10-06T10:10:02.754Z,70.53
2022-10-06T10:11:02.399Z,71.23
2022-10-06T10:12:02.523Z,68.41
2022-10-06T10:13:02.721Z,67.81
2022-10-06T10:14:02.734Z,68.01
2022-10-06T10:15:02.949Z,69.52
2022-10-06T10:16:02.624Z,69.72
2022-10-06T10:17:02.869Z,71.53
2022-10-06T10:18:02.669Z,71.43
2022-10-06T10:19:02.940Z,71.94
2022-10-06T10:20:03.283Z,71.63
2022-10-06T10:21:02.704Z,70.93
2022-10-06T10:22:02.715Z,68.62
2022-10-06T10:23:02.245Z,67.51
2022-10-06T10:24:02.538Z,69.72
2022-10-06T10:25:02.419Z,70.59
2022-10-06T10:26:02.235Z,68.18
2022-10-06T10:27:02.952Z,67.98
2022-10-06T10:28:02.710Z,66.27
2022-10-06T10:29:02.646Z,66.87
2022-10-06T10:30:03.264Z,69.79
2022-10-06T10:31:03.263Z,67.27
2022-10-06T10:32:03.411Z,65.09
2022-10-06T10:33:03.115Z,65.19
2022-10-06T10:34:12.581Z,64.02
2022-10-06T10:35:03.423Z,65.12
2022-10-06T10:36:03.173Z,65.73
2022-10-06T10:37:02.752Z,68.44
2022-10-06T10:38:02.550Z,67.24
2022-10-06T10:39:02.590Z,66.63
2022-10-06T10:40:02.564Z,66.03
2022-10-06T10:41:03.009Z,68.82
2022-10-06T10:42:02.802Z,69.22
2022-10-06T10:43:02.951Z,69.29
2022-10-06T10:44:04.181Z,66.97
2022-10-06T10:45:02.802Z,66.27
2022-10-06T10:46:02.674Z,63.76
2022-10-06T10:47:03.103Z,65.87
2022-10-06T10:48:03.151Z,66.57
2022-10-06T10:49:02.979Z,66.97
2022-10-06T10:50:02.835Z,63.35
2022-10-06T10:51:02.834Z,63.82
2022-10-06T10:52:03.337Z,66.34
2022-10-06T10:53:03.353Z,65.13
2022-10-06T10:54:03.345Z,65.13
2022-10-06T10:55:03.571Z,65.03
2022-10-06T10:56:03.518Z,65.84
2022-10-06T10:57:02.857Z,66.11
2022-10-06T10:58:02.967Z,65.91
2022-10-06T10:59:02.988Z,65.41
2022-10-06T11:00:03.172Z,64.30
2022-10-06T11:01:02.914Z,65.57
2022-10-06T11:02:03.296Z,66.58
2022-10-06T11:03:03.244Z,63.76
2022-10-06T11:04:03.164Z,63.67
2022-10-06T11:05:03.227Z,65.24
2022-10-06T11:06:03.329Z,67.45
2022-10-06T11:07:02.413Z,67.92
2022-10-06T11:08:02.320Z,63.81
2022-10-06T11:09:02.214Z,63.31
2022-10-06T11:10:02.073Z,64.40
2022-10-06T11:11:02.621Z,62.40
2022-10-06T11:12:02.968Z,64.98
2022-10-06T11:13:02.528Z,62.67
2022-10-06T11:14:03.065Z,62.47
2022-10-06T11:15:03.097Z,60.27
2022-10-06T11:16:02.639Z,59.16
2022-10-06T11:17:02.909Z,60.27
2022-10-06T11:18:03.608Z,58.56
2022-10-06T11:19:02.878Z,58.96
2022-10-06T11:20:03.169Z,58.99
2022-10-06T11:21:03.358Z,59.16
2022-10-06T11:22:02.968Z,61.47
2022-10-06T11:23:02.953Z,62.37
2022-10-06T11:24:03.011Z,61.27
2022-10-06T11:25:03.597Z,62.64
2022-10-06T11:26:02.800Z,61.34
2022-10-06T11:27:03.258Z,60.64
2022-10-06T11:28:02.750Z,59.94
2022-10-06T11:29:03.359Z,59.33
2022-10-06T11:30:03.350Z,59.13
2022-10-06T11:31:03.311Z,57.83
2022-10-06T11:32:03.528Z,61.54
2022-10-06T11:33:03.124Z,60.74
2022-10-06T11:34:03.173Z,59.41
2022-10-06T11:35:03.650Z,58.91
2022-10-06T11:36:03.598Z,59.11
2022-10-06T11:37:03.186Z,61.01
2022-10-06T11:38:03.114Z,56.80
2022-10-06T11:39:03.139Z,58.91
2022-10-06T11:40:03.028Z,55.80
2022-10-06T11:41:05.109Z,58.50
2022-10-06T11:42:03.387Z,55.90
2022-10-06T11:43:03.367Z,58.11
2022-10-06T11:44:03.501Z,58.70
2022-10-06T11:45:03.468Z,58.48
2022-10-06T11:46:03.030Z,57.87
2022-10-06T11:47:03.632Z,55.47
2022-10-06T11:48:03.365Z,56.98
2022-10-06T11:49:03.538Z,59.68
2022-10-06T11:50:03.639Z,61.78
2022-10-06T11:51:03.296Z,60.95
2022-10-06T11:52:05.829Z,60.55
2022-10-06T11:53:02.869Z,60.92
2022-10-06T11:54:02.398Z,60.12
2022-10-06T11:55:02.805Z,61.59
2022-10-06T11:56:02.371Z,53.89
2022-10-06T11:57:03.071Z,55.49
2022-10-06T11:58:12.614Z,56.99
2022-10-06T11:59:02.975Z,55.99
2022-10-06T12:00:02.931Z,53.79
2022-10-06T12:01:02.539Z,58.09
2022-10-06T12:02:01.940Z,55.99
2022-10-06T12:03:02.049Z,55.99
2022-10-06T12:04:02.042Z,54.39
2022-10-06T12:05:02.193Z,54.90
2022-10-06T12:06:01.836Z,53.89
2022-10-06T12:07:01.935Z,53.79
2022-10-06T12:08:02.374Z,58.97
2022-10-06T12:09:02.003Z,56.46
2022-10-06T12:10:02.146Z,59.47
2022-10-06T12:11:02.186Z,58.04
2022-10-06T12:12:02.218Z,59.04
2022-10-06T12:13:07.302Z,58.31
2022-10-06T12:15:31.515Z,57.71
2022-10-06T12:17:14.006Z,53.39
2022-10-06T12:18:02.842Z,58.38
2022-10-06T12:19:02.884Z,58.78
2022-10-06T12:20:02.377Z,56.96
2022-10-06T12:21:02.724Z,56.76
2022-10-06T12:22:02.983Z,53.66
2022-10-06T12:23:02.318Z,55.46
2022-10-06T12:24:02.398Z,53.14
2022-10-06T12:25:02.605Z,52.44
2022-10-06T12:26:02.094Z,51.05
2022-10-06T12:27:02.029Z,53.44
2022-10-06T12:28:02.341Z,52.17
2022-10-06T12:29:02.399Z,52.47
2022-10-06T12:30:02.802Z,52.74
2022-10-06T12:31:02.884Z,50.67
2022-10-06T12:32:02.223Z,53.94
2022-10-06T12:33:02.769Z,49.87
2022-10-06T12:34:02.609Z,50.27
2022-10-06T12:35:02.822Z,51.97
2022-10-06T12:36:02.950Z,53.47
2022-10-06T12:37:02.932Z,48.38
2022-10-06T12:38:02.654Z,51.79
2022-10-06T12:39:02.218Z,49.40
2022-10-06T12:40:02.751Z,52.79
2022-10-06T12:41:02.714Z,55.76
2022-10-06T12:42:02.217Z,52.76
2022-10-06T12:43:02.670Z,51.17
2022-10-06T12:44:02.667Z,52.97
2022-10-06T12:45:02.869Z,50.17
2022-10-06T12:46:02.496Z,52.76
2022-10-06T12:47:02.752Z,49.57
2022-10-06T12:48:02.963Z,48.58
2022-10-06T12:49:02.761Z,52.57
2022-10-06T12:50:02.763Z,50.95
2022-10-06T12:51:02.859Z,54.14
2022-10-06T12:52:05.013Z,51.54
2022-10-06T12:53:02.772Z,50.52
2022-10-06T12:54:02.828Z,49.85